M I D A S
Marine Information and Data Acquisition System
Tripno 451 of the Zeeleeuw from 2003-03-27 07:26:41 to 2003-03-27 16:33:47
Back to CruiseResearch ActivitiesStationsMapUnderway DataData graphs

EquipmentUnitsComments
TimeDGPSUTC
LatitudeDGPSDM.mWGS84
LongitudeDGPSDM.mWGS84
SpeedMeteo Stationm/sRelative wind speed
DirectionMeteo StationdegRelative wind direction
TemperatureMeteo Stationdeg CelciusAir temperature
PressureMeteo StationPaAtmospheric pressure
HumidityMeteo Station%Relative humidity
Missing or incorrect values are displayed as -999
Metereological data collected by the RV Zeeleeuw from 2003-03-27 07:26:41 to 2003-03-27 16:33:47
                                                                                    Next 1000 lines
Time Latitude Longitude Speed Direction Temperature Pressure Humidity
2003-03-27 07:26:49 51°13.601 2°56.105 1.7 98 6.2 101760 89
2003-03-27 07:26:54 51°13.601 2°56.105 1.4 106 6.2 101760 89
2003-03-27 07:26:58 51°13.6 2°56.105 2.1 73 6.2 101760 89
2003-03-27 07:27:04 51°13.599 2°56.104 1.7 84 6.2 101760 89
2003-03-27 07:27:09 51°13.599 2°56.104 1.8 67 6.2 101760 89
2003-03-27 07:27:14 51°13.6 2°56.104 2.4 77 6.2 101760 89
2003-03-27 07:27:18 51°13.6 2°56.105 2.5 71 6.2 101760 89
2003-03-27 07:27:24 51°13.601 2°56.105 2 76 6.2 101760 89
2003-03-27 07:27:29 51°13.601 2°56.105 2.3 62 6.1 101760 89
2003-03-27 07:27:34 51°13.6 2°56.104 1.6 66 6.1 101760 89
2003-03-27 07:27:38 51°13.599 2°56.104 2 83 6.2 101760 89
2003-03-27 07:27:44 51°13.599 2°56.104 1.8 70 6.2 101760 89
2003-03-27 07:27:49 51°13.599 2°56.105 1.7 81 6.2 101760 89
2003-03-27 07:27:54 51°13.599 2°56.105 1.6 93 6.2 101760 89
2003-03-27 07:27:59 51°13.599 2°56.104 1.2 96 6.2 101760 89
2003-03-27 07:28:04 51°13.6 2°56.104 1.3 126 6.2 101760 89
2003-03-27 07:28:09 51°13.6 2°56.105 1.2 119 6.2 101760 89
2003-03-27 07:28:14 51°13.6 2°56.105 1.2 81 6.2 101760 89
2003-03-27 07:28:18 51°13.6 2°56.105 1.2 54 6.2 101760 89
2003-03-27 07:28:24 51°13.6 2°56.105 1.8 64 6.2 101760 89
2003-03-27 07:28:29 51°13.6 2°56.104 2.2 46 6.2 101760 89
2003-03-27 07:28:34 51°13.6 2°56.104 2.4 50 6.2 101760 89
2003-03-27 07:28:38 51°13.599 2°56.103 2.2 56 6.2 101760 89
2003-03-27 07:28:44 51°13.598 2°56.103 2.1 55 6.2 101760 89
2003-03-27 07:28:49 51°13.598 2°56.103 2.3 53 6.2 101760 90
2003-03-27 07:28:54 51°13.598 2°56.102 2.4 49 6.2 101760 90
2003-03-27 07:28:58 51°13.598 2°56.102 2.5 49 6.3 101760 90
2003-03-27 07:29:04 51°13.598 2°56.101 2.3 57 6.3 101760 90
2003-03-27 07:29:09 51°13.599 2°56.1 1.5 62 6.3 101760 90
2003-03-27 07:29:14 51°13.599 2°56.097 1.8 75 6.3 101760 90
2003-03-27 07:29:18 51°13.6 2°56.096 1.8 97 6.3 101760 90
2003-03-27 07:29:24 51°13.6 2°56.092 2 108 6.3 101760 90
2003-03-27 07:29:30 51°13.601 2°56.088 1.5 106 6.3 101760 90
2003-03-27 07:29:34 51°13.602 2°56.084 1.8 115 6.3 101760 90
2003-03-27 07:29:40 51°13.604 2°56.079 2.2 130 6.3 101760 90
2003-03-27 07:29:45 51°13.605 2°56.073 2.7 124 6.3 101760 90
2003-03-27 07:29:50 51°13.607 2°56.068 2.4 115 6.3 101760 90
2003-03-27 07:29:54 51°13.608 2°56.064 1.9 118 6.3 101760 90
2003-03-27 07:30:00 51°13.61 2°56.056 2.7 124 6.3 101760 90
2003-03-27 07:30:05 51°13.611 2°56.049 2.9 126 6.3 101760 90
2003-03-27 07:30:10 51°13.614 2°56.042 3 116 6.3 101760 90
2003-03-27 07:30:14 51°13.615 2°56.036 3.3 120 6.3 101760 90
2003-03-27 07:30:20 51°13.617 2°56.026 3.2 119 6.2 101760 90
2003-03-27 07:30:25 51°13.618 2°56.017 2.7 120 6.2 101760 90
2003-03-27 07:30:30 51°13.619 2°56.007 3 124 6.2 101760 90
2003-03-27 07:30:34 51°13.62 2°56 2.8 129 6.2 101760 90
2003-03-27 07:30:40 51°13.623 2°55.989 2.7 158 6.2 101760 90
2003-03-27 07:30:45 51°13.625 2°55.98 3 134 6.2 101760 90
2003-03-27 07:30:50 51°13.628 2°55.97 3.8 131 6.2 101760 90
2003-03-27 07:30:54 51°13.629 2°55.962 3.7 135 6.2 101760 90
2003-03-27 07:31:00 51°13.632 2°55.952 3.3 141 6.2 101760 90
2003-03-27 07:31:05 51°13.635 2°55.942 3.4 148 6.2 101760 90
2003-03-27 07:31:09 51°13.637 2°55.935 3.4 129 6.2 101760 90
2003-03-27 07:31:14 51°13.641 2°55.927 3.4 136 6.2 101760 90
2003-03-27 07:31:18 51°13.643 2°55.921 3.6 144 6.1 101760 90
2003-03-27 07:31:24 51°13.646 2°55.91 2.6 137 6.1 101760 90
2003-03-27 07:31:30 51°13.651 2°55.899 3.8 142 6.2 101760 90
2003-03-27 07:31:34 51°13.654 2°55.891 3.5 134 6.2 101760 90
2003-03-27 07:31:40 51°13.659 2°55.88 3.9 129 6.1 101760 90
2003-03-27 07:31:45 51°13.662 2°55.87 3.8 125 6.1 101760 90
2003-03-27 07:31:50 51°13.666 2°55.862 2.7 127 6.1 101760 90
2003-03-27 07:31:54 51°13.669 2°55.857 3.1 136 6.1 101760 90
2003-03-27 07:31:59 51°13.672 2°55.851 2.2 111 6.1 101760 90
2003-03-27 07:32:04 51°13.675 2°55.846 2.5 113 6.1 101760 90
2003-03-27 07:32:09 51°13.677 2°55.842 2.1 100 6.1 101760 90
2003-03-27 07:32:14 51°13.679 2°55.839 2 118 6.1 101760 90
2003-03-27 07:32:18 51°13.679 2°55.836 2.5 92 6.1 101760 90
2003-03-27 07:32:24 51°13.68 2°55.834 2.2 63 6.1 101760 90
2003-03-27 07:32:29 51°13.68 2°55.833 2.6 66 6.1 101760 90
2003-03-27 07:32:34 51°13.68 2°55.831 2.8 66 6.1 101760 90
2003-03-27 07:32:39 51°13.68 2°55.83 3.1 52 6.1 101760 90
2003-03-27 07:32:44 51°13.68 2°55.83 2.4 57 6.1 101760 90
2003-03-27 07:32:49 51°13.681 2°55.83 2.4 54 6.1 101760 90
2003-03-27 07:32:54 51°13.681 2°55.829 1.9 72 6.1 101760 90
2003-03-27 07:33:00 51°13.681 2°55.827 1.8 65 6.1 101760 90
2003-03-27 07:33:04 51°13.681 2°55.825 2.1 64 6.1 101760 90
2003-03-27 07:33:09 51°13.682 2°55.822 1.7 79 6.1 101760 90
2003-03-27 07:33:14 51°13.682 2°55.818 1.5 103 6.1 101760 90
2003-03-27 07:33:20 51°13.683 2°55.812 1.3 117 6.1 101760 90
2003-03-27 07:33:24 51°13.684 2°55.809 1.8 100 6.1 101760 90
2003-03-27 07:33:30 51°13.684 2°55.802 1.3 101 6.1 101760 90
2003-03-27 07:33:34 51°13.685 2°55.798 1.9 99 6.1 101760 90
2003-03-27 07:33:40 51°13.686 2°55.791 1.4 94 6.1 101760 90
2003-03-27 07:33:45 51°13.687 2°55.785 1.1 84 6.1 101760 90
2003-03-27 07:33:50 51°13.686 2°55.78 1.2 85 6.1 101760 90
2003-03-27 07:33:54 51°13.686 2°55.775 1.2 85 6.1 101760 90
2003-03-27 07:33:59 51°13.686 2°55.77 1.4 85 6.1 101760 90
2003-03-27 07:34:04 51°13.686 2°55.764 1.2 85 6.1 101760 90
2003-03-27 07:34:10 51°13.686 2°55.758 0.9 107 6.1 101760 90
2003-03-27 07:34:14 51°13.686 2°55.754 1.1 122 6.1 101760 90
2003-03-27 07:34:20 51°13.687 2°55.749 0.8 109 6.1 101760 90
2003-03-27 07:34:24 51°13.688 2°55.746 1.4 105 6.1 101760 90
2003-03-27 07:34:28 51°13.688 2°55.743 1.7 100 6.1 101760 90
2003-03-27 07:34:34 51°13.687 2°55.741 1.5 99 6.1 101760 90
2003-03-27 07:34:39 51°13.687 2°55.74 1.5 69 6.1 101760 90
2003-03-27 07:34:44 51°13.687 2°55.74 1.5 62 6.1 101760 90
2003-03-27 07:34:48 51°13.687 2°55.74 1.1 61 6.1 101760 90
2003-03-27 07:34:54 51°13.686 2°55.74 1 60 6.1 101760 90
2003-03-27 07:34:58 51°13.686 2°55.74 1.4 57 6.1 101760 90
2003-03-27 07:35:04 51°13.687 2°55.74 1.5 51 6.1 101760 90
2003-03-27 07:35:09 51°13.688 2°55.74 1.8 45 6.1 101770 90
2003-03-27 07:35:14 51°13.689 2°55.741 1.8 317 6.1 101770 90
2003-03-27 07:35:18 51°13.69 2°55.742 1.5 36 6.1 101760 90
2003-03-27 07:35:24 51°13.692 2°55.743 1.4 21 6.1 101760 90
2003-03-27 07:35:29 51°13.693 2°55.743 1.8 26 6.2 101760 90
2003-03-27 07:35:34 51°13.695 2°55.744 1.9 17 6.2 101760 90
2003-03-27 07:35:38 51°13.696 2°55.745 2.5 3 6.2 101760 90
2003-03-27 07:35:44 51°13.698 2°55.746 2.3 354 6.2 101760 90
2003-03-27 07:35:49 51°13.7 2°55.747 2.7 343 6.2 101760 90
2003-03-27 07:35:54 51°13.702 2°55.748 2.6 343 6.2 101760 90
2003-03-27 07:35:58 51°13.703 2°55.748 2.2 341 6.2 101760 90
2003-03-27 07:36:04 51°13.706 2°55.748 1.5 352 6.2 101760 90
2003-03-27 07:36:09 51°13.709 2°55.748 1.1 352 6.2 101760 90
2003-03-27 07:36:14 51°13.711 2°55.747 2.8 349 6.2 101760 90
2003-03-27 07:36:18 51°13.713 2°55.746 2.5 334 6.2 101760 90
2003-03-27 07:36:24 51°13.717 2°55.744 2.6 325 6.2 101760 90
2003-03-27 07:36:28 51°13.72 2°55.743 2.1 339 6.2 101760 90
2003-03-27 07:36:34 51°13.725 2°55.74 2.4 330 6.2 101760 90
2003-03-27 07:36:39 51°13.728 2°55.738 2.4 333 6.2 101760 90
2003-03-27 07:36:44 51°13.732 2°55.735 2.5 323 6.2 101760 90
2003-03-27 07:36:48 51°13.735 2°55.732 2.4 324 6.2 101760 90
2003-03-27 07:36:54 51°13.74 2°55.727 2.8 345 6.2 101760 90
2003-03-27 07:36:58 51°13.743 2°55.724 2.7 349 6.2 101760 90
2003-03-27 07:37:04 51°13.748 2°55.719 3.6 345 6.2 101760 90
2003-03-27 07:37:09 51°13.752 2°55.714 3.7 333 6.1 101760 90
2003-03-27 07:37:14 51°13.757 2°55.709 3.7 336 6.1 101760 90
2003-03-27 07:37:19 51°13.762 2°55.703 4.1 339 6.1 101770 90
2003-03-27 07:37:24 51°13.767 2°55.698 3.7 326 6.1 101770 90
2003-03-27 07:37:29 51°13.772 2°55.692 3.2 328 6.1 101760 90
2003-03-27 07:37:34 51°13.778 2°55.686 3.1 332 6.1 101760 90
2003-03-27 07:37:38 51°13.783 2°55.681 3.9 332 6.1 101760 90
2003-03-27 07:37:44 51°13.79 2°55.674 4.3 327 6.1 101760 90
2003-03-27 07:37:48 51°13.795 2°55.669 4.1 337 6.1 101760 90
2003-03-27 07:37:54 51°13.802 2°55.661 4.3 347 6.1 101760 90
2003-03-27 07:37:58 51°13.807 2°55.656 4 333 6.1 101760 90
2003-03-27 07:38:04 51°13.815 2°55.648 4.2 331 6.1 101760 90
2003-03-27 07:38:09 51°13.821 2°55.642 4 331 6.1 101760 90
2003-03-27 07:38:14 51°13.828 2°55.636 3.9 332 6.1 101760 90
2003-03-27 07:38:18 51°13.834 2°55.632 3.7 326 6.1 101760 90
2003-03-27 07:38:24 51°13.843 2°55.626 3.7 338 6.1 101760 90
2003-03-27 07:38:30 51°13.852 2°55.62 4.1 338 6 101760 90
2003-03-27 07:38:34 51°13.858 2°55.616 4.7 334 6 101760 90
2003-03-27 07:38:38 51°13.864 2°55.611 4.2 329 6 101760 90
2003-03-27 07:38:44 51°13.873 2°55.606 5.1 329 6 101760 90
2003-03-27 07:38:49 51°13.881 2°55.601 4.3 332 6 101770 90
2003-03-27 07:38:54 51°13.889 2°55.596 4.6 339 6 101770 90
2003-03-27 07:38:58 51°13.896 2°55.592 4.5 336 6 101760 90
2003-03-27 07:39:04 51°13.905 2°55.586 4.5 328 6 101760 90
2003-03-27 07:39:09 51°13.912 2°55.581 4.5 333 6 101760 90
2003-03-27 07:39:14 51°13.92 2°55.575 5.8 331 6 101760 90
2003-03-27 07:39:18 51°13.927 2°55.571 4.7 332 6 101760 90
2003-03-27 07:39:24 51°13.936 2°55.565 5.2 325 6 101760 90
2003-03-27 07:39:29 51°13.944 2°55.56 5.2 321 6 101770 90
2003-03-27 07:39:34 51°13.952 2°55.554 5.3 321 6 101770 90
2003-03-27 07:39:38 51°13.959 2°55.55 5.3 332 5.9 101760 90
2003-03-27 07:39:44 51°13.968 2°55.544 5.2 330 5.9 101760 90
2003-03-27 07:39:49 51°13.976 2°55.539 5.7 324 5.9 101770 90
2003-03-27 07:39:54 51°13.984 2°55.534 5.4 324 5.9 101770 90
2003-03-27 07:39:59 51°13.992 2°55.529 5.1 324 5.9 101760 90
2003-03-27 07:40:04 51°14.001 2°55.524 4.4 329 5.9 101760 90
2003-03-27 07:40:08 51°14.007 2°55.521 3.9 326 5.9 101760 90
2003-03-27 07:40:14 51°14.016 2°55.514 4.7 318 5.9 101760 90
2003-03-27 07:40:18 51°14.022 2°55.51 4.3 322 5.8 101760 90
2003-03-27 07:40:24 51°14.032 2°55.503 4.5 325 5.8 101760 90
2003-03-27 07:40:29 51°14.04 2°55.497 4.7 308 5.8 101760 90
2003-03-27 07:40:34 51°14.048 2°55.491 4.7 325 5.8 101760 90
2003-03-27 07:40:38 51°14.054 2°55.486 4.9 318 5.8 101760 91
2003-03-27 07:40:44 51°14.064 2°55.479 6 316 5.8 101760 91
2003-03-27 07:40:49 51°14.071 2°55.472 5.3 323 5.8 101770 91
2003-03-27 07:40:54 51°14.079 2°55.466 5.3 326 5.8 101770 91
2003-03-27 07:40:58 51°14.085 2°55.46 6.3 305 5.8 101760 91
2003-03-27 07:41:04 51°14.094 2°55.452 5.2 313 5.8 101760 91
2003-03-27 07:41:09 51°14.102 2°55.445 6.2 311 5.7 101760 91
2003-03-27 07:41:14 51°14.109 2°55.439 5.9 307 5.7 101760 91
2003-03-27 07:41:18 51°14.115 2°55.434 6.3 306 5.7 101760 91
2003-03-27 07:41:24 51°14.124 2°55.425 5.4 302 5.7 101760 91
2003-03-27 07:41:29 51°14.132 2°55.419 5.4 310 5.7 101760 91
2003-03-27 07:41:34 51°14.139 2°55.412 6.1 309 5.7 101760 91
2003-03-27 07:41:38 51°14.145 2°55.407 6.5 308 5.6 101770 91
2003-03-27 07:41:44 51°14.154 2°55.399 5.8 302 5.6 101770 91
2003-03-27 07:41:49 51°14.162 2°55.392 6.5 297 5.6 101770 91
2003-03-27 07:41:54 51°14.169 2°55.386 5.8 296 5.6 101770 91
2003-03-27 07:41:58 51°14.176 2°55.38 5.6 303 5.6 101760 91
2003-03-27 07:42:04 51°14.185 2°55.371 6.1 295 5.6 101760 91
2003-03-27 07:42:09 51°14.193 2°55.363 6.3 298 5.6 101770 91
2003-03-27 07:42:14 51°14.2 2°55.356 5 298 5.6 101770 91
2003-03-27 07:42:18 51°14.205 2°55.349 4.7 281 5.6 101760 91
2003-03-27 07:42:24 51°14.213 2°55.339 5.6 285 5.6 101760 91
2003-03-27 07:42:29 51°14.22 2°55.329 4.4 297 5.5 101760 91
2003-03-27 07:42:34 51°14.226 2°55.32 3.4 284 5.5 101760 91
2003-03-27 07:42:38 51°14.231 2°55.312 3.3 284 5.5 101770 91
2003-03-27 07:42:44 51°14.238 2°55.3 4.1 292 5.5 101770 91
2003-03-27 07:42:49 51°14.244 2°55.29 4.1 281 5.5 101770 91
2003-03-27 07:42:54 51°14.25 2°55.279 4.1 292 5.5 101770 91
2003-03-27 07:42:58 51°14.254 2°55.27 4.8 283 5.5 101770 91
2003-03-27 07:43:04 51°14.261 2°55.255 4.4 285 5.5 101770 91
2003-03-27 07:43:09 51°14.267 2°55.244 3.8 288 5.5 101770 91
2003-03-27 07:43:14 51°14.273 2°55.233 4.5 290 5.5 101770 91
2003-03-27 07:43:19 51°14.279 2°55.221 4.4 286 5.5 101770 91
2003-03-27 07:43:24 51°14.284 2°55.21 3.7 305 5.5 101770 91
2003-03-27 07:43:29 51°14.29 2°55.199 4.1 298 5.5 101770 91
2003-03-27 07:43:34 51°14.296 2°55.188 4.3 295 5.5 101770 91
2003-03-27 07:43:38 51°14.3 2°55.18 4.2 298 5.5 101770 91
2003-03-27 07:43:44 51°14.307 2°55.167 4.4 284 5.5 101770 91
2003-03-27 07:43:49 51°14.313 2°55.156 4.6 277 5.5 101770 91
2003-03-27 07:43:54 51°14.318 2°55.145 4.4 285 5.5 101770 91
2003-03-27 07:43:58 51°14.322 2°55.136 3.5 293 5.5 101770 91
2003-03-27 07:44:04 51°14.328 2°55.123 3.5 288 5.5 101770 91
2003-03-27 07:44:09 51°14.333 2°55.113 4.4 296 5.6 101770 91
2003-03-27 07:44:14 51°14.337 2°55.103 3.4 291 5.6 101770 91
2003-03-27 07:44:18 51°14.341 2°55.094 4.6 309 5.5 101770 92
2003-03-27 07:44:24 51°14.347 2°55.08 3.9 289 5.5 101770 92
2003-03-27 07:44:28 51°14.35 2°55.071 4.5 289 5.5 101770 92
2003-03-27 07:44:34 51°14.357 2°55.058 4.2 291 5.5 101770 92
2003-03-27 07:44:38 51°14.361 2°55.049 4.4 286 5.5 101770 92
2003-03-27 07:44:44 51°14.367 2°55.035 5 281 5.5 101770 92
2003-03-27 07:44:49 51°14.373 2°55.025 5 288 5.5 101770 92
2003-03-27 07:44:54 51°14.379 2°55.014 5.4 281 5.5 101770 92
2003-03-27 07:44:59 51°14.385 2°55.004 5.7 279 5.5 101770 92
2003-03-27 07:45:04 51°14.392 2°54.994 5.1 281 5.5 101770 92
2003-03-27 07:45:09 51°14.398 2°54.985 5.6 281 5.5 101770 92
2003-03-27 07:45:14 51°14.405 2°54.976 5.8 280 5.5 101770 92
2003-03-27 07:45:18 51°14.411 2°54.968 5.7 279 5.5 101770 92
2003-03-27 07:45:24 51°14.419 2°54.953 5.5 278 5.5 101770 92
2003-03-27 07:45:29 51°14.427 2°54.94 4.9 280 5.4 101760 92
2003-03-27 07:45:34 51°14.434 2°54.926 4.6 280 5.4 101760 92
2003-03-27 07:45:38 51°14.439 2°54.914 5 281 5.4 101770 92
2003-03-27 07:45:44 51°14.447 2°54.895 4.9 283 5.4 101770 92
2003-03-27 07:45:49 51°14.454 2°54.879 5.2 280 5.4 101760 92
2003-03-27 07:45:54 51°14.46 2°54.861 4.5 283 5.4 101760 92
2003-03-27 07:45:58 51°14.466 2°54.847 5.2 280 5.4 101770 92
2003-03-27 07:46:04 51°14.474 2°54.825 5 284 5.4 101770 92
2003-03-27 07:46:09 51°14.481 2°54.807 5.3 284 5.4 101770 92
2003-03-27 07:46:14 51°14.487 2°54.788 5 286 5.4 101770 92
2003-03-27 07:46:18 51°14.492 2°54.773 4.9 291 5.4 101760 92
2003-03-27 07:46:24 51°14.5 2°54.75 4.8 287 5.4 101760 92
2003-03-27 07:46:29 51°14.507 2°54.73 4.8 285 5.4 101770 92
2003-03-27 07:46:34 51°14.514 2°54.711 4.8 284 5.4 101770 92
2003-03-27 07:46:39 51°14.52 2°54.692 4.6 285 5.3 101760 92
2003-03-27 07:46:44 51°14.527 2°54.672 5.1 281 5.3 101760 92
2003-03-27 07:46:49 51°14.534 2°54.652 4.4 283 5.3 101770 92
2003-03-27 07:46:54 51°14.541 2°54.632 4.3 285 5.3 101770 92
2003-03-27 07:46:58 51°14.546 2°54.616 4.6 283 5.3 101770 92
2003-03-27 07:47:04 51°14.554 2°54.589 4.5 286 5.3 101770 92
2003-03-27 07:47:09 51°14.56 2°54.567 5.1 282 5.3 101770 92
2003-03-27 07:47:14 51°14.566 2°54.547 4.3 282 5.3 101770 92
2003-03-27 07:47:19 51°14.574 2°54.528 4.2 283 5.3 101770 92
2003-03-27 07:47:24 51°14.581 2°54.51 4.1 285 5.3 101770 92
2003-03-27 07:47:29 51°14.588 2°54.491 4.2 283 5.3 101760 92
2003-03-27 07:47:34 51°14.595 2°54.471 4.8 281 5.3 101760 92
2003-03-27 07:47:38 51°14.6 2°54.456 4.9 283 5.3 101770 92
2003-03-27 07:47:44 51°14.608 2°54.433 4.6 281 5.3 101770 92
2003-03-27 07:47:48 51°14.613 2°54.418 4.6 286 5.3 101770 92
2003-03-27 07:47:54 51°14.621 2°54.395 4.4 282 5.3 101770 92
2003-03-27 07:47:58 51°14.627 2°54.379 5 288 5.3 101770 92
2003-03-27 07:48:04 51°14.635 2°54.356 4.7 285 5.3 101770 92
2003-03-27 07:48:08 51°14.64 2°54.34 5 286 5.3 101770 92
2003-03-27 07:48:14 51°14.649 2°54.316 4.1 282 5.3 101770 92
2003-03-27 07:48:18 51°14.654 2°54.3 4.5 281 5.3 101770 92
2003-03-27 07:48:24 51°14.662 2°54.276 4.5 285 5.3 101770 92
2003-03-27 07:48:28 51°14.668 2°54.26 5.5 299 5.3 101770 92
2003-03-27 07:48:34 51°14.677 2°54.236 5.7 296 5.3 101770 92
2003-03-27 07:48:38 51°14.682 2°54.219 5.6 288 5.3 101770 92
2003-03-27 07:48:44 51°14.691 2°54.192 6.2 292 5.3 101770 92
2003-03-27 07:48:49 51°14.698 2°54.17 6.2 300 5.3 101770 92
2003-03-27 07:48:54 51°14.706 2°54.148 6 296 5.3 101770 92
2003-03-27 07:48:58 51°14.712 2°54.13 6.7 302 5.3 101760 92
2003-03-27 07:49:04 51°14.72 2°54.103 6.3 305 5.3 101760 92
2003-03-27 07:49:09 51°14.728 2°54.08 6.7 297 5.3 101760 92
2003-03-27 07:49:14 51°14.736 2°54.057 6.4 297 5.3 101760 92
2003-03-27 07:49:18 51°14.742 2°54.039 6.1 294 5.3 101770 92
2003-03-27 07:49:24 51°14.752 2°54.011 6 303 5.3 101770 92
2003-03-27 07:49:29 51°14.76 2°53.987 6.1 293 5.3 101760 92
2003-03-27 07:49:34 51°14.767 2°53.964 5.9 293 5.3 101760 92
2003-03-27 07:49:38 51°14.773 2°53.946 5.7 286 5.3 101760 92
2003-03-27 07:49:44 51°14.783 2°53.918 5.9 299 5.3 101760 92
2003-03-27 07:49:49 51°14.79 2°53.894 6 297 5.3 101760 92
2003-03-27 07:49:54 51°14.797 2°53.871 6.4 295 5.3 101760 92
2003-03-27 07:49:58 51°14.803 2°53.853 5.8 291 5.2 101760 92
2003-03-27 07:50:04 51°14.811 2°53.825 5.7 292 5.2 101760 92
2003-03-27 07:50:09 51°14.819 2°53.802 5.7 292 5.2 101760 93
2003-03-27 07:50:14 51°14.826 2°53.779 5.3 289 5.2 101760 93
2003-03-27 07:50:18 51°14.832 2°53.76 6.5 296 5.2 101770 92
2003-03-27 07:50:24 51°14.841 2°53.732 6 295 5.2 101770 92
2003-03-27 07:50:29 51°14.849 2°53.708 6.1 297 5.2 101770 93
2003-03-27 07:50:34 51°14.857 2°53.685 6.7 298 5.2 101770 93
2003-03-27 07:50:38 51°14.863 2°53.666 6.5 298 5.2 101770 93
2003-03-27 07:50:44 51°14.872 2°53.637 6.2 297 5.2 101770 93
2003-03-27 07:50:49 51°14.879 2°53.614 6.4 303 5.2 101760 93
2003-03-27 07:50:54 51°14.887 2°53.59 6.2 302 5.2 101760 93
2003-03-27 07:50:58 51°14.893 2°53.571 7.2 306 5.2 101760 93
2003-03-27 07:51:04 51°14.902 2°53.543 7.2 294 5.2 101760 93
2003-03-27 07:51:09 51°14.909 2°53.52 6.7 295 5.2 101770 93
2003-03-27 07:51:14 51°14.917 2°53.496 6.7 296 5.2 101770 93
2003-03-27 07:51:18 51°14.923 2°53.478 7 298 5.2 101760 93
2003-03-27 07:51:24 51°14.932 2°53.45 6.7 294 5.2 101760 93
2003-03-27 07:51:29 51°14.94 2°53.426 5.8 288 5.2 101760 93
2003-03-27 07:51:34 51°14.947 2°53.403 5.9 289 5.2 101760 93
2003-03-27 07:51:39 51°14.955 2°53.38 5.8 292 5.2 101760 93
2003-03-27 07:51:44 51°14.962 2°53.356 5.8 293 5.2 101760 93
2003-03-27 07:51:49 51°14.97 2°53.333 6.9 297 5.2 101760 93
2003-03-27 07:51:54 51°14.977 2°53.31 6.7 303 5.2 101760 93
2003-03-27 07:51:58 51°14.983 2°53.291 7.1 301 5.2 101760 93
2003-03-27 07:52:04 51°14.992 2°53.262 7 298 5.2 101760 93
2003-03-27 07:52:08 51°14.998 2°53.244 6.9 294 5.1 101760 93
2003-03-27 07:52:14 51°15.007 2°53.216 7.2 298 5.1 101760 93
2003-03-27 07:52:18 51°15.013 2°53.197 6.9 298 5.2 101760 93
2003-03-27 07:52:24 51°15.022 2°53.169 6.8 296 5.2 101760 93
2003-03-27 07:52:29 51°15.03 2°53.145 6.2 297 5.2 101760 93
2003-03-27 07:52:34 51°15.037 2°53.122 6.8 295 5.2 101760 93
2003-03-27 07:52:38 51°15.043 2°53.103 6.8 293 5.1 101760 93
2003-03-27 07:52:44 51°15.052 2°53.075 6.4 293 5.1 101760 93
2003-03-27 07:52:49 51°15.059 2°53.051 6.1 293 5.1 101760 93
2003-03-27 07:52:54 51°15.067 2°53.028 6 290 5.1 101760 93
2003-03-27 07:52:58 51°15.073 2°53.009 6 292 5.1 101760 93
2003-03-27 07:53:04 51°15.082 2°52.981 5.9 295 5.1 101760 93
2003-03-27 07:53:08 51°15.088 2°52.962 6.7 297 5.1 101760 93
2003-03-27 07:53:14 51°15.097 2°52.934 6.8 295 5.1 101760 93
2003-03-27 07:53:18 51°15.103 2°52.915 7.6 303 5.1 101760 93
2003-03-27 07:53:24 51°15.112 2°52.887 7.4 299 5.1 101760 93
2003-03-27 07:53:29 51°15.119 2°52.865 7.5 298 5.1 101770 93
2003-03-27 07:53:34 51°15.127 2°52.843 7.6 300 5.1 101770 93
2003-03-27 07:53:38 51°15.133 2°52.825 7.6 296 5.1 101760 93
2003-03-27 07:53:44 51°15.142 2°52.797 7.4 297 5.1 101760 93
2003-03-27 07:53:48 51°15.148 2°52.776 6.7 293 5.1 101760 93
2003-03-27 07:53:54 51°15.157 2°52.745 6.7 293 5.1 101760 93
2003-03-27 07:53:58 51°15.162 2°52.724 5.9 290 5.1 101760 93
2003-03-27 07:54:04 51°15.171 2°52.695 6.2 287 5.1 101760 93
2003-03-27 07:54:09 51°15.178 2°52.671 6.3 286 5.1 101760 93
2003-03-27 07:54:14 51°15.185 2°52.647 6.1 301 5.1 101760 93
2003-03-27 07:54:18 51°15.191 2°52.629 5.3 288 5.1 101760 93
2003-03-27 07:54:24 51°15.2 2°52.601 5.9 284 5.1 101760 93
2003-03-27 07:54:28 51°15.206 2°52.582 5.8 285 5.1 101760 93
2003-03-27 07:54:34 51°15.215 2°52.554 6 286 5.1 101760 93
2003-03-27 07:54:39 51°15.223 2°52.531 5.5 284 5.1 101760 93
2003-03-27 07:54:44 51°15.231 2°52.507 4.9 283 5.1 101760 93
2003-03-27 07:54:49 51°15.238 2°52.484 6.1 291 5.1 101760 93
2003-03-27 07:54:54 51°15.246 2°52.461 5.5 286 5.1 101760 93
2003-03-27 07:54:58 51°15.252 2°52.442 5.2 288 5 101760 93
2003-03-27 07:55:04 51°15.261 2°52.415 6 300 5 101760 93
2003-03-27 07:55:09 51°15.268 2°52.393 6.5 292 5 101770 93
2003-03-27 07:55:14 51°15.275 2°52.37 6.4 290 5 101770 93
2003-03-27 07:55:18 51°15.281 2°52.352 6.5 292 5 101760 93
2003-03-27 07:55:24 51°15.29 2°52.323 6.9 293 5 101760 93
2003-03-27 07:55:29 51°15.297 2°52.3 7.2 297 5.1 101770 93
2003-03-27 07:55:34 51°15.304 2°52.276 6.4 292 5.1 101770 93
2003-03-27 07:55:38 51°15.31 2°52.257 6.1 292 5.1 101760 93
2003-03-27 07:55:44 51°15.319 2°52.229 6.7 301 5.1 101760 93
2003-03-27 07:55:49 51°15.326 2°52.205 6.7 301 5.1 101770 94
2003-03-27 07:55:54 51°15.334 2°52.182 6.9 298 5.1 101770 94
2003-03-27 07:55:59 51°15.341 2°52.158 7.3 300 5.1 101760 94
2003-03-27 07:56:04 51°15.35 2°52.136 7.7 298 5.1 101760 94
2003-03-27 07:56:09 51°15.358 2°52.113 7.4 297 5.1 101770 94
2003-03-27 07:56:14 51°15.366 2°52.091 7.5 298 5.1 101770 94
2003-03-27 07:56:18 51°15.373 2°52.074 7.2 299 5 101760 94
2003-03-27 07:56:24 51°15.384 2°52.047 7.1 297 5 101760 94
2003-03-27 07:56:28 51°15.391 2°52.029 7.3 295 5 101760 94
2003-03-27 07:56:34 51°15.403 2°52.002 6.9 292 5 101760 94
2003-03-27 07:56:38 51°15.41 2°51.984 6.9 295 5 101760 94
2003-03-27 07:56:44 51°15.421 2°51.956 7.4 300 5 101760 94
2003-03-27 07:56:49 51°15.431 2°51.933 7.3 298 5 101760 94
2003-03-27 07:56:54 51°15.441 2°51.909 7.6 300 5 101760 94
2003-03-27 07:56:59 51°15.45 2°51.886 8 299 5 101760 94
2003-03-27 07:57:04 51°15.46 2°51.862 7.7 298 5 101760 94
2003-03-27 07:57:09 51°15.469 2°51.839 7.7 296 5 101760 94
2003-03-27 07:57:14 51°15.479 2°51.815 7.5 300 5 101760 94
2003-03-27 07:57:18 51°15.487 2°51.795 7.4 294 5 101760 94
2003-03-27 07:57:24 51°15.499 2°51.767 7.2 296 5 101760 94
2003-03-27 07:57:29 51°15.508 2°51.743 7.4 298 5 101760 94
2003-03-27 07:57:34 51°15.518 2°51.719 6.9 298 5 101760 94
2003-03-27 07:57:38 51°15.526 2°51.7 6.7 304 5 101760 94
2003-03-27 07:57:44 51°15.539 2°51.671 7.8 306 5 101760 94
2003-03-27 07:57:49 51°15.549 2°51.647 8.2 301 5 101760 94
2003-03-27 07:57:54 51°15.559 2°51.624 8.1 302 5 101760 94
2003-03-27 07:57:58 51°15.568 2°51.605 8.1 302 5 101760 94
2003-03-27 07:58:04 51°15.581 2°51.578 7.6 302 5 101760 94
2003-03-27 07:58:09 51°15.592 2°51.555 7.8 303 5 101760 94
2003-03-27 07:58:14 51°15.603 2°51.533 6.9 308 5 101760 94
2003-03-27 07:58:18 51°15.612 2°51.514 7.3 302 5 101760 94
2003-03-27 07:58:24 51°15.625 2°51.487 7.1 310 5 101760 94
2003-03-27 07:58:29 51°15.636 2°51.464 8.3 303 4.9 101760 94
2003-03-27 07:58:34 51°15.647 2°51.441 8.2 303 4.9 101760 94
2003-03-27 07:58:38 51°15.656 2°51.423 7.9 304 4.9 101760 94
2003-03-27 07:58:44 51°15.668 2°51.395 7.8 310 4.9 101760 94
2003-03-27 07:58:49 51°15.679 2°51.373 8 305 4.9 101760 94
2003-03-27 07:58:54 51°15.69 2°51.35 8.1 305 4.9 101760 94
2003-03-27 07:58:58 51°15.699 2°51.332 8.5 300 4.9 101760 94
2003-03-27 07:59:04 51°15.713 2°51.305 8.3 302 4.9 101760 94
2003-03-27 07:59:09 51°15.724 2°51.282 8.3 303 5 101760 94
2003-03-27 07:59:14 51°15.735 2°51.26 8.2 300 5 101760 94
2003-03-27 07:59:18 51°15.743 2°51.241 8.2 301 4.9 101760 94
2003-03-27 07:59:24 51°15.756 2°51.214 8.3 298 4.9 101760 94
2003-03-27 07:59:29 51°15.767 2°51.192 7.8 307 4.9 101760 94
2003-03-27 07:59:34 51°15.778 2°51.169 7.8 294 4.9 101760 94
2003-03-27 07:59:38 51°15.787 2°51.15 8.9 296 4.9 101760 94
2003-03-27 07:59:44 51°15.801 2°51.123 7.8 298 4.9 101760 94
2003-03-27 07:59:48 51°15.81 2°51.105 7.8 297 4.9 101760 94
2003-03-27 07:59:54 51°15.823 2°51.078 8.2 300 4.9 101760 94
2003-03-27 07:59:58 51°15.833 2°51.06 7.8 296 4.9 101760 94
2003-03-27 08:00:04 51°15.846 2°51.033 8.6 303 4.9 101760 94
2003-03-27 08:00:08 51°15.855 2°51.015 8.4 302 4.9 101760 94
2003-03-27 08:00:14 51°15.869 2°50.988 7.7 303 4.9 101760 94
2003-03-27 08:00:18 51°15.878 2°50.97 8.6 301 4.9 101760 94
2003-03-27 08:00:24 51°15.892 2°50.943 8.4 301 4.9 101760 94
2003-03-27 08:00:29 51°15.903 2°50.92 8.6 302 4.9 101760 94
2003-03-27 08:00:34 51°15.914 2°50.898 7.8 305 4.9 101760 94
2003-03-27 08:00:39 51°15.926 2°50.875 8.2 302 4.9 101760 94
2003-03-27 08:00:44 51°15.937 2°50.853 8.4 301 4.9 101760 94
2003-03-27 08:00:49 51°15.948 2°50.83 8 300 4.9 101760 94
2003-03-27 08:00:54 51°15.959 2°50.808 7.4 299 4.9 101760 94
2003-03-27 08:00:58 51°15.969 2°50.79 8.1 297 4.9 101760 94
2003-03-27 08:01:04 51°15.982 2°50.763 7.8 306 4.9 101760 94
2003-03-27 08:01:09 51°15.993 2°50.74 7.8 300 4.8 101760 94
2003-03-27 08:01:14 51°16.005 2°50.718 8 300 4.8 101760 94
2003-03-27 08:01:18 51°16.014 2°50.7 7.4 306 4.8 101760 94
2003-03-27 08:01:24 51°16.027 2°50.673 8.2 299 4.8 101760 94
2003-03-27 08:01:28 51°16.036 2°50.655 7.9 303 4.9 101760 94
2003-03-27 08:01:34 51°16.05 2°50.628 7.7 308 4.9 101760 94
2003-03-27 08:01:38 51°16.059 2°50.61 8.4 302 4.9 101760 94
2003-03-27 08:01:44 51°16.072 2°50.583 7.9 299 4.9 101760 94
2003-03-27 08:01:49 51°16.083 2°50.561 8 303 4.9 101760 94
2003-03-27 08:01:54 51°16.094 2°50.539 7.7 301 4.9 101760 94
2003-03-27 08:01:58 51°16.103 2°50.521 8 304 4.9 101760 94
2003-03-27 08:02:04 51°16.116 2°50.494 7.6 298 4.9 101760 94
2003-03-27 08:02:08 51°16.125 2°50.476 8.1 296 4.8 101760 94
2003-03-27 08:02:14 51°16.139 2°50.45 7.7 296 4.8 101760 94
2003-03-27 08:02:18 51°16.148 2°50.432 7.7 297 4.8 101770 94
2003-03-27 08:02:24 51°16.161 2°50.405 7.6 297 4.8 101770 94
2003-03-27 08:02:29 51°16.172 2°50.383 7.3 297 4.8 101760 94
2003-03-27 08:02:34 51°16.183 2°50.36 7.9 305 4.8 101760 94
2003-03-27 08:02:38 51°16.192 2°50.342 8.6 301 4.8 101760 94
2003-03-27 08:02:44 51°16.205 2°50.315 8.3 302 4.8 101760 94
2003-03-27 08:02:48 51°16.214 2°50.297 8.2 298 4.8 101770 94
2003-03-27 08:02:54 51°16.228 2°50.27 8.1 303 4.8 101770 94
2003-03-27 08:03:00 51°16.241 2°50.243 7.8 300 4.8 101770 94
2003-03-27 08:03:04 51°16.25 2°50.225 7.5 302 4.8 101770 94
2003-03-27 08:03:09 51°16.262 2°50.203 8.2 305 4.8 101760 94
2003-03-27 08:03:14 51°16.273 2°50.181 8 304 4.8 101760 94
2003-03-27 08:03:18 51°16.282 2°50.163 8.3 304 4.8 101760 94
2003-03-27 08:03:24 51°16.295 2°50.136 7.7 299 4.8 101760 94
2003-03-27 08:03:30 51°16.308 2°50.109 8 300 4.8 101760 94
2003-03-27 08:03:34 51°16.317 2°50.091 8.4 299 4.8 101760 94
2003-03-27 08:03:40 51°16.331 2°50.064 8.2 301 4.7 101770 94
2003-03-27 08:03:44 51°16.34 2°50.046 8.1 301 4.7 101770 94
2003-03-27 08:03:49 51°16.351 2°50.024 8.1 301 4.7 101760 94
2003-03-27 08:03:54 51°16.362 2°50.001 8.9 301 4.7 101760 94
2003-03-27 08:03:59 51°16.374 2°49.98 8 299 4.7 101770 94
2003-03-27 08:04:04 51°16.385 2°49.958 8.2 296 4.7 101770 94
2003-03-27 08:04:09 51°16.397 2°49.937 8.3 302 4.7 101770 94
2003-03-27 08:04:14 51°16.409 2°49.915 7.7 300 4.7 101770 94
2003-03-27 08:04:18 51°16.419 2°49.899 8.2 301 4.7 101760 94
2003-03-27 08:04:24 51°16.433 2°49.874 7.7 303 4.7 101760 94
2003-03-27 08:04:29 51°16.446 2°49.853 7.9 300 4.7 101760 94
2003-03-27 08:04:34 51°16.458 2°49.833 7.9 301 4.7 101760 94
2003-03-27 08:04:39 51°16.471 2°49.812 8.6 303 4.7 101760 94
2003-03-27 08:04:44 51°16.484 2°49.792 8.5 302 4.7 101760 94
2003-03-27 08:04:49 51°16.496 2°49.771 8.6 303 4.7 101770 94
2003-03-27 08:04:54 51°16.509 2°49.751 8.6 302 4.7 101770 94
2003-03-27 08:04:58 51°16.519 2°49.734 8.5 300 4.7 101770 94
2003-03-27 08:05:04 51°16.534 2°49.71 8.2 302 4.7 101770 94
2003-03-27 08:05:10 51°16.55 2°49.685 8.4 302 4.7 101760 94
2003-03-27 08:05:14 51°16.56 2°49.669 8 302 4.7 101760 94
2003-03-27 08:05:18 51°16.57 2°49.652 9.1 306 4.7 101760 94
2003-03-27 08:05:24 51°16.585 2°49.627 8.4 310 4.7 101760 94
2003-03-27 08:05:29 51°16.598 2°49.607 9.5 303 4.7 101760 94
2003-03-27 08:05:34 51°16.611 2°49.586 9.3 306 4.7 101760 94
2003-03-27 08:05:39 51°16.623 2°49.565 9.6 304 4.7 101770 94
2003-03-27 08:05:44 51°16.636 2°49.544 9 303 4.7 101770 94
2003-03-27 08:05:48 51°16.646 2°49.528 9.5 307 4.7 101760 94
2003-03-27 08:05:54 51°16.661 2°49.503 8.8 299 4.7 101760 94
2003-03-27 08:05:58 51°16.671 2°49.486 8.8 300 4.7 101760 94
2003-03-27 08:06:04 51°16.687 2°49.461 9.4 298 4.7 101760 94
2003-03-27 08:06:09 51°16.699 2°49.441 9.1 300 4.7 101760 94
2003-03-27 08:06:14 51°16.712 2°49.42 8.4 300 4.7 101760 94
2003-03-27 08:06:18 51°16.723 2°49.403 8.6 303 4.7 101760 94
2003-03-27 08:06:24 51°16.738 2°49.378 9.3 305 4.7 101760 94
2003-03-27 08:06:29 51°16.751 2°49.357 8.8 303 4.7 101760 94
2003-03-27 08:06:34 51°16.764 2°49.336 8.7 300 4.7 101760 94
2003-03-27 08:06:38 51°16.774 2°49.319 8.7 303 4.7 101760 94
2003-03-27 08:06:45 51°16.792 2°49.29 8.7 303 4.7 101760 94
2003-03-27 08:06:50 51°16.804 2°49.269 8.8 300 4.7 101760 94
2003-03-27 08:06:54 51°16.815 2°49.251 9 300 4.7 101760 94
2003-03-27 08:06:58 51°16.825 2°49.235 8.8 299 4.6 101760 94
2003-03-27 08:07:04 51°16.84 2°49.209 8.3 300 4.6 101760 94
2003-03-27 08:07:09 51°16.853 2°49.187 8.4 298 4.7 101760 94
2003-03-27 08:07:14 51°16.866 2°49.166 7.9 297 4.7 101760 94
2003-03-27 08:07:19 51°16.879 2°49.145 7.9 305 4.6 101770 94
2003-03-27 08:07:24 51°16.891 2°49.123 8.7 309 4.6 101770 94
2003-03-27 08:07:28 51°16.902 2°49.106 9.2 307 4.6 101760 94
2003-03-27 08:07:34 51°16.917 2°49.08 9.3 308 4.6 101760 94
2003-03-27 08:07:38 51°16.927 2°49.063 8.6 304 4.6 101760 94
2003-03-27 08:07:44 51°16.942 2°49.037 8.7 306 4.6 101760 94
2003-03-27 08:07:49 51°16.955 2°49.015 8.8 305 4.6 101770 94
2003-03-27 08:07:54 51°16.968 2°48.993 8.5 303 4.6 101770 94
2003-03-27 08:07:58 51°16.978 2°48.976 8.4 307 4.7 101770 94
2003-03-27 08:08:04 51°16.993 2°48.95 8.4 306 4.7 101770 94
2003-03-27 08:08:09 51°17.006 2°48.928 8.4 309 4.7 101770 95
2003-03-27 08:08:14 51°17.019 2°48.906 8.6 309 4.7 101770 95
2003-03-27 08:08:20 51°17.034 2°48.88 8.7 308 4.6 101770 95
2003-03-27 08:08:24 51°17.044 2°48.863 8 308 4.6 101770 95
2003-03-27 08:08:29 51°17.057 2°48.841 9 311 4.7 101770 95
2003-03-27 08:08:34 51°17.07 2°48.821 9.5 307 4.7 101770 95
2003-03-27 08:08:38 51°17.081 2°48.804 9.6 307 4.7 101770 95
2003-03-27 08:08:44 51°17.097 2°48.779 9.4 307 4.7 101770 95
2003-03-27 08:08:50 51°17.114 2°48.755 9.3 304 4.7 101760 95
2003-03-27 08:08:54 51°17.125 2°48.739 8.6 306 4.7 101760 95
2003-03-27 08:08:59 51°17.138 2°48.719 8.7 303 4.7 101770 95
2003-03-27 08:09:04 51°17.152 2°48.699 8.1 307 4.7 101770 95
2003-03-27 08:09:09 51°17.166 2°48.678 8.8 304 4.7 101770 95
2003-03-27 08:09:14 51°17.179 2°48.658 8.7 311 4.7 101770 95
2003-03-27 08:09:18 51°17.19 2°48.642 9 310 4.7 101770 95
2003-03-27 08:09:24 51°17.206 2°48.618 9.5 308 4.7 101770 95
2003-03-27 08:09:29 51°17.22 2°48.597 9.2 308 4.7 101770 95
2003-03-27 08:09:34 51°17.234 2°48.577 8.9 306 4.7 101770 95
2003-03-27 08:09:40 51°17.25 2°48.552 9.8 307 4.7 101770 95
2003-03-27 08:09:44 51°17.261 2°48.536 9 306 4.7 101770 95
2003-03-27 08:09:48 51°17.271 2°48.52 9.2 306 4.7 101770 95
2003-03-27 08:09:54 51°17.288 2°48.496 8.4 303 4.7 101770 95
2003-03-27 08:09:58 51°17.298 2°48.48 9.2 306 4.7 101760 95
2003-03-27 08:10:04 51°17.314 2°48.456 9.4 307 4.7 101760 95
2003-03-27 08:10:09 51°17.327 2°48.435 9.1 304 4.7 101770 95
2003-03-27 08:10:14 51°17.34 2°48.415 9.3 304 4.7 101770 95
2003-03-27 08:10:20 51°17.357 2°48.392 8.7 308 4.6 101770 95
2003-03-27 08:10:24 51°17.367 2°48.375 9.2 302 4.6 101770 95
2003-03-27 08:10:29 51°17.381 2°48.355 9.2 302 4.6 101770 95
2003-03-27 08:10:34 51°17.394 2°48.335 9.5 305 4.6 101770 95
2003-03-27 08:10:38 51°17.405 2°48.319 9.1 303 4.6 101760 95
2003-03-27 08:10:44 51°17.422 2°48.295 8.9 302 4.6 101760 95
2003-03-27 08:10:50 51°17.438 2°48.27 9.5 305 4.6 101770 95
2003-03-27 08:10:54 51°17.449 2°48.254 9.1 308 4.6 101770 95
2003-03-27 08:10:59 51°17.463 2°48.234 8.7 311 4.6 101760 95
2003-03-27 08:11:05 51°17.479 2°48.21 9 305 4.6 101760 95
2003-03-27 08:11:09 51°17.49 2°48.194 8.5 311 4.6 101760 95
2003-03-27 08:11:14 51°17.503 2°48.172 8.9 307 4.6 101760 95
2003-03-27 08:11:18 51°17.514 2°48.155 8.4 311 4.6 101770 95
2003-03-27 08:11:24 51°17.529 2°48.129 9 302 4.6 101770 95
2003-03-27 08:11:30 51°17.543 2°48.102 8.7 307 4.6 101770 95
2003-03-27 08:11:34 51°17.553 2°48.084 8.5 302 4.6 101770 95
2003-03-27 08:11:40 51°17.567 2°48.057 7.8 304 4.6 101770 95
2003-03-27 08:11:44 51°17.576 2°48.038 8.3 300 4.6 101770 95
2003-03-27 08:11:48 51°17.585 2°48.02 7.5 300 4.6 101770 95
2003-03-27 08:11:54 51°17.598 2°47.992 7.8 302 4.6 101770 95
2003-03-27 08:11:58 51°17.607 2°47.973 7.9 300 4.6 101770 95
2003-03-27 08:12:04 51°17.621 2°47.946 8 296 4.6 101770 95
2003-03-27 08:12:09 51°17.632 2°47.923 7.8 303 4.6 101770 95
2003-03-27 08:12:14 51°17.644 2°47.9 8.2 303 4.6 101770 95
2003-03-27 08:12:18 51°17.653 2°47.882 8.3 302 4.6 101770 95
2003-03-27 08:12:24 51°17.667 2°47.854 7.6 300 4.6 101770 95
2003-03-27 08:12:29 51°17.678 2°47.831 7.8 304 4.6 101780 95
2003-03-27 08:12:34 51°17.69 2°47.807 7.7 313 4.6 101780 95
2003-03-27 08:12:40 51°17.703 2°47.779 8.6 306 4.6 101770 95
2003-03-27 08:12:44 51°17.712 2°47.76 8.2 302 4.6 101770 95
2003-03-27 08:12:49 51°17.722 2°47.736 8.3 300 4.6 101780 95
2003-03-27 08:12:54 51°17.733 2°47.712 7.8 297 4.6 101780 95
2003-03-27 08:13:00 51°17.745 2°47.682 7.4 301 4.6 101780 95
2003-03-27 08:13:04 51°17.753 2°47.662 6.9 297 4.6 101780 95
2003-03-27 08:13:09 51°17.764 2°47.638 6.7 300 4.6 101770 95
2003-03-27 08:13:14 51°17.773 2°47.612 7.7 309 4.6 101770 95
2003-03-27 08:13:18 51°17.781 2°47.593 7.2 304 4.6 101770 95
2003-03-27 08:13:24 51°17.793 2°47.562 7.4 305 4.6 101770 95
2003-03-27 08:13:30 51°17.804 2°47.531 7.1 308 4.6 101780 95
2003-03-27 08:13:34 51°17.809 2°47.51 7.1 308 4.6 101780 95
2003-03-27 08:13:40 51°17.819 2°47.477 7.3 303 4.6 101780 95
2003-03-27 08:13:44 51°17.824 2°47.456 6.4 296 4.6 101780 95
2003-03-27 08:13:49 51°17.83 2°47.428 6.4 301 4.5 101780 95
2003-03-27 08:13:54 51°17.836 2°47.4 6 304 4.5 101780 95
2003-03-27 08:13:58 51°17.84 2°47.378 5.7 292 4.5 101780 95
2003-03-27 08:14:04 51°17.845 2°47.345 5.7 299 4.5 101780 95
2003-03-27 08:14:09 51°17.849 2°47.316 5.4 288 4.5 101780 95
2003-03-27 08:14:14 51°17.853 2°47.288 5.1 303 4.5 101780 95
2003-03-27 08:14:20 51°17.856 2°47.254 5.2 293 4.6 101780 95
2003-03-27 08:14:24 51°17.859 2°47.231 4 296 4.6 101780 95
2003-03-27 08:14:28 51°17.861 2°47.209 4.7 295 4.5 101790 95
2003-03-27 08:14:34 51°17.865 2°47.175 4.3 297 4.5 101790 95
2003-03-27 08:14:38 51°17.866 2°47.151 4.7 300 4.5 101790 95
2003-03-27 08:14:44 51°17.869 2°47.117 5.1 304 4.5 101790 95
2003-03-27 08:14:50 51°17.871 2°47.084 5 299 4.5 101780 95
2003-03-27 08:14:54 51°17.872 2°47.062 5.2 305 4.5 101780 95
2003-03-27 08:14:58 51°17.874 2°47.039 5 302 4.5 101790 95
2003-03-27 08:15:04 51°17.877 2°47.004 5.2 295 4.5 101790 95
2003-03-27 08:15:10 51°17.879 2°46.97 5.4 296 4.5 101790 95
2003-03-27 08:15:14 51°17.881 2°46.947 5.5 298 4.5 101790 95
2003-03-27 08:15:18 51°17.883 2°46.924 5.8 299 4.5 101790 95
2003-03-27 08:15:24 51°17.887 2°46.89 4.9 298 4.5 101790 95
2003-03-27 08:15:30 51°17.891 2°46.856 5.8 298 4.5 101780 95
2003-03-27 08:15:34 51°17.893 2°46.834 6 299 4.5 101780 95
2003-03-27 08:15:39 51°17.897 2°46.807 5.6 293 4.5 101780 95
2003-03-27 08:15:44 51°17.9 2°46.779 5.5 295 4.5 101780 95
2003-03-27 08:15:48 51°17.903 2°46.756 5.4 294 4.5 101790 95
2003-03-27 08:15:54 51°17.907 2°46.721 4.9 298 4.5 101790 95
2003-03-27 08:15:58 51°17.909 2°46.697 5.1 296 4.5 101790 95
2003-03-27 08:16:04 51°17.913 2°46.662 5.1 294 4.5 101790 95
2003-03-27 08:16:09 51°17.917 2°46.633 5.5 294 4.5 101780 95
2003-03-27 08:16:14 51°17.92 2°46.606 5 292 4.5 101780 95
2003-03-27 08:16:20 51°17.924 2°46.571 5.2 294 4.5 101790 95
2003-03-27 08:16:24 51°17.927 2°46.549 4.5 292 4.5 101790 95
2003-03-27 08:16:29 51°17.93 2°46.521 5.2 300 4.5 101790 95
2003-03-27 08:16:34 51°17.934 2°46.493 5.7 303 4.5 101790 95
2003-03-27 08:16:38 51°17.936 2°46.47 5.7 302 4.5 101780 95
2003-03-27 08:16:44 51°17.94 2°46.436 6 296 4.5 101780 95
2003-03-27 08:16:50 51°17.944 2°46.401 5.9 295 4.5 101790 95
2003-03-27 08:16:54 51°17.947 2°46.378 5.9 295 4.5 101790 95
2003-03-27 08:16:59 51°17.95 2°46.349 5.9 297 4.5 101790 95
2003-03-27 08:17:04 51°17.953 2°46.321 5.8 299 4.5 101790 95
2003-03-27 08:17:09 51°17.957 2°46.292 5.6 294 4.5 101780 95
2003-03-27 08:17:14 51°17.96 2°46.263 5.2 291 4.5 101780 95
2003-03-27 08:17:18 51°17.963 2°46.241 5 292 4.5 101790 95
2003-03-27 08:17:25 51°17.968 2°46.2 4.9 292 4.5 101790 95
2003-03-27 08:17:30 51°17.971 2°46.172 5.2 294 4.5 101780 95
2003-03-27 08:17:34 51°17.974 2°46.149 4.8 290 4.5 101780 95
2003-03-27 08:17:39 51°17.978 2°46.121 5.1 298 4.5 101780 95
2003-03-27 08:17:44 51°17.981 2°46.092 5.3 296 4.5 101780 95
2003-03-27 08:17:49 51°17.985 2°46.063 4.9 291 4.4 101790 95
2003-03-27 08:17:54 51°17.988 2°46.034 5.8 305 4.4 101790 95
2003-03-27 08:18:00 51°17.992 2°46 5.4 296 4.5 101790 95
2003-03-27 08:18:05 51°17.995 2°45.971 5.3 297 4.5 101790 95
2003-03-27 08:18:09 51°17.997 2°45.948 6.2 293 4.5 101790 95
2003-03-27 08:18:14 51°18.001 2°45.92 5.7 294 4.5 101790 95
2003-03-27 08:18:18 51°18.003 2°45.897 5.4 291 4.5 101790 95
2003-03-27 08:18:24 51°18.008 2°45.863 5 288 4.5 101790 95
2003-03-27 08:18:30 51°18.013 2°45.828 5.4 293 4.5 101790 95
2003-03-27 08:18:34 51°18.016 2°45.805 5.1 296 4.5 101790 95
2003-03-27 08:18:40 51°18.02 2°45.77 5.3 303 4.5 101780 95
2003-03-27 08:18:44 51°18.024 2°45.747 5.5 294 4.5 101780 95
2003-03-27 08:18:50 51°18.028 2°45.712 5.1 296 4.5 101790 95
2003-03-27 08:18:54 51°18.031 2°45.69 4.8 295 4.5 101790 95
2003-03-27 08:18:58 51°18.034 2°45.67 5.2 296 4.5 101790 95
2003-03-27 08:19:04 51°18.039 2°45.641 4.4 289 4.5 101790 95
2003-03-27 08:19:09 51°18.042 2°45.617 4.3 295 4.5 101790 95
2003-03-27 08:19:14 51°18.045 2°45.594 3.6 285 4.5 101790 95
2003-03-27 08:19:20 51°18.047 2°45.566 5.5 271 4.5 101790 95
2003-03-27 08:19:24 51°18.048 2°45.547 4.6 267 4.5 101790 95
2003-03-27 08:19:29 51°18.049 2°45.525 4 268 4.5 101780 95
2003-03-27 08:19:34 51°18.049 2°45.504 4 263 4.5 101780 95
2003-03-27 08:19:38 51°18.049 2°45.487 3.5 263 4.5 101790 95
2003-03-27 08:19:44 51°18.049 2°45.461 3 257 4.5 101790 95
2003-03-27 08:19:49 51°18.048 2°45.44 2.8 251 4.5 101790 95
2003-03-27 08:19:54 51°18.047 2°45.419 2.5 266 4.5 101790 95
2003-03-27 08:19:58 51°18.047 2°45.402 2.6 265 4.5 101790 95
2003-03-27 08:20:04 51°18.045 2°45.378 2.3 263 4.5 101790 95
2003-03-27 08:20:09 51°18.043 2°45.358 2.4 266 4.5 101800 95
2003-03-27 08:20:14 51°18.042 2°45.339 2.8 274 4.5 101800 95
2003-03-27 08:20:19 51°18.04 2°45.318 3.5 269 4.6 101790 95
2003-03-27 08:20:24 51°18.04 2°45.298 3.3 284 4.6 101790 95
2003-03-27 08:20:28 51°18.04 2°45.282 3.8 269 4.6 101800 95
2003-03-27 08:20:34 51°18.042 2°45.26 4.2 266 4.6 101800 95
2003-03-27 08:20:38 51°18.044 2°45.247 4.2 268 4.6 101800 95
2003-03-27 08:20:44 51°18.048 2°45.228 5.5 276 4.6 101800 95
2003-03-27 08:20:49 51°18.052 2°45.215 5.7 273 4.6 101790 95
2003-03-27 08:20:54 51°18.056 2°45.203 5.8 274 4.6 101790 95
2003-03-27 08:20:58 51°18.06 2°45.193 6.2 271 4.6 101790 95
2003-03-27 08:21:04 51°18.066 2°45.181 6.3 278 4.6 101790 95
2003-03-27 08:21:09 51°18.072 2°45.173 6.5 278 4.6 101790 95
2003-03-27 08:21:14 51°18.078 2°45.165 6 278 4.6 101790 95
2003-03-27 08:21:18 51°18.083 2°45.16 4.9 283 4.6 101790 95
2003-03-27 08:21:24 51°18.089 2°45.153 5.3 282 4.6 101790 95
2003-03-27 08:21:28 51°18.094 2°45.149 5.5 290 4.6 101790 95
2003-03-27 08:21:34 51°18.1 2°45.144 6.7 295 4.6 101790 95
2003-03-27 08:21:39 51°18.106 2°45.141 5.9 289 4.6 101790 95
2003-03-27 08:21:44 51°18.111 2°45.137 5.6 290 4.6 101790 95
2003-03-27 08:21:49 51°18.116 2°45.134 6.2 291 4.6 101790 95
2003-03-27 08:21:54 51°18.121 2°45.131 5.5 290 4.6 101790 95
2003-03-27 08:21:58 51°18.125 2°45.129 5.6 288 4.6 101790 95
2003-03-27 08:22:04 51°18.131 2°45.126 4.6 285 4.6 101790 95
2003-03-27 08:22:09 51°18.136 2°45.124 6.1 288 4.5 101790 95
2003-03-27 08:22:14 51°18.14 2°45.123 6.6 285 4.5 101790 95
2003-03-27 08:22:18 51°18.143 2°45.122 5.1 285 4.5 101780 95
2003-03-27 08:22:24 51°18.147 2°45.12 5.5 282 4.5 101780 95
2003-03-27 08:22:29 51°18.15 2°45.119 5.5 282 4.5 101790 95
2003-03-27 08:22:34 51°18.153 2°45.119 4.9 285 4.5 101790 95
2003-03-27 08:22:38 51°18.155 2°45.119 5.4 282 4.6 101790 95
2003-03-27 08:22:44 51°18.158 2°45.117 4.5 283 4.6 101790 95
2003-03-27 08:22:48 51°18.159 2°45.117 5.5 294 4.5 101780 95
2003-03-27 08:22:54 51°18.161 2°45.118 5.4 295 4.5 101780 95
2003-03-27 08:22:58 51°18.162 2°45.118 4.9 289 4.5 101790 95
2003-03-27 08:23:04 51°18.164 2°45.119 5.8 291 4.5 101790 95
2003-03-27 08:23:08 51°18.165 2°45.119 5.9 293 4.5 101790 95
2003-03-27 08:23:14 51°18.167 2°45.119 6.1 292 4.5 101790 95
2003-03-27 08:23:18 51°18.168 2°45.119 5.8 291 4.5 101790 95
2003-03-27 08:23:24 51°18.17 2°45.119 5.5 290 4.5 101790 95
2003-03-27 08:23:29 51°18.171 2°45.118 5.1 291 4.5 101790 95
2003-03-27 08:23:34 51°18.172 2°45.118 5.1 285 4.5 101790 95
2003-03-27 08:23:38 51°18.173 2°45.119 4.8 290 4.5 101790 95
2003-03-27 08:23:44 51°18.175 2°45.119 5.4 294 4.5 101790 95
2003-03-27 08:23:48 51°18.176 2°45.119 5.2 289 4.5 101790 95
2003-03-27 08:23:54 51°18.178 2°45.119 5.4 288 4.5 101790 95
2003-03-27 08:23:58 51°18.179 2°45.119 5.3 285 4.5 101780 95
2003-03-27 08:24:04 51°18.181 2°45.119 5.6 286 4.5 101780 95
2003-03-27 08:24:08 51°18.182 2°45.119 5.4 288 4.5 101790 95
2003-03-27 08:24:14 51°18.184 2°45.12 5.2 287 4.5 101790 95
2003-03-27 08:24:18 51°18.185 2°45.12 4.8 285 4.5 101790 95
2003-03-27 08:24:24 51°18.186 2°45.12 5.4 285 4.5 101790 95
2003-03-27 08:24:29 51°18.188 2°45.12 5.2 287 4.5 101790 95
2003-03-27 08:24:34 51°18.189 2°45.12 5.5 283 4.5 101790 95
2003-03-27 08:24:38 51°18.189 2°45.12 5.5 280 4.5 101790 95
2003-03-27 08:24:44 51°18.191 2°45.12 5.2 283 4.5 101790 95
2003-03-27 08:24:49 51°18.192 2°45.12 5.2 280 4.5 101790 95
2003-03-27 08:24:54 51°18.193 2°45.121 5.6 281 4.5 101790 95
2003-03-27 08:24:58 51°18.194 2°45.121 5.4 279 4.5 101790 95
2003-03-27 08:25:04 51°18.196 2°45.121 5.7 277 4.5 101790 95
2003-03-27 08:25:08 51°18.197 2°45.12 6.2 273 4.5 101790 95
2003-03-27 08:25:14 51°18.198 2°45.12 5.3 280 4.5 101790 95
2003-03-27 08:25:19 51°18.2 2°45.12 5.5 286 4.5 101800 95
2003-03-27 08:25:24 51°18.201 2°45.12 5.5 280 4.5 101800 95
2003-03-27 08:25:29 51°18.203 2°45.12 5 282 4.5 101800 95
2003-03-27 08:25:34 51°18.204 2°45.12 5.3 286 4.5 101800 95
2003-03-27 08:25:38 51°18.205 2°45.119 5.2 284 4.5 101800 95
2003-03-27 08:25:44 51°18.207 2°45.119 5.6 285 4.5 101800 95
2003-03-27 08:25:48 51°18.208 2°45.119 5.5 285 4.5 101800 95
2003-03-27 08:25:54 51°18.21 2°45.118 5.6 285 4.5 101800 95
2003-03-27 08:25:58 51°18.212 2°45.118 5.5 284 4.4 101800 95
2003-03-27 08:26:04 51°18.214 2°45.117 5.3 289 4.4 101800 95
2003-03-27 08:26:09 51°18.216 2°45.117 5.3 281 4.4 101800 95
2003-03-27 08:26:14 51°18.218 2°45.117 5.3 286 4.4 101800 95
2003-03-27 08:26:18 51°18.22 2°45.117 5.4 285 4.4 101800 95
2003-03-27 08:26:24 51°18.223 2°45.117 5.2 283 4.4 101800 95
2003-03-27 08:26:28 51°18.224 2°45.117 5.4 288 4.4 101800 95
2003-03-27 08:26:34 51°18.226 2°45.116 5.2 288 4.4 101800 95
2003-03-27 08:26:38 51°18.228 2°45.116 4.9 282 4.5 101800 95
2003-03-27 08:26:44 51°18.231 2°45.115 5.5 290 4.5 101800 95
2003-03-27 08:26:49 51°18.233 2°45.114 5.8 293 4.5 101790 95
2003-03-27 08:26:54 51°18.235 2°45.114 5.7 287 4.5 101790 95
2003-03-27 08:26:58 51°18.237 2°45.114 6.1 293 4.5 101800 95
2003-03-27 08:27:04 51°18.24 2°45.114 5.8 293 4.5 101800 95
2003-03-27 08:27:09 51°18.243 2°45.114 6.3 291 4.5 101790 95
2003-03-27 08:27:14 51°18.245 2°45.113 5.9 290 4.5 101790 95
2003-03-27 08:27:18 51°18.248 2°45.112 5.4 289 4.5 101790 95
2003-03-27 08:27:24 51°18.251 2°45.112 6.6 301 4.5 101790 95
2003-03-27 08:27:29 51°18.253 2°45.112 6.3 293 4.5 101790 95
2003-03-27 08:27:34 51°18.256 2°45.111 6.3 295 4.5 101790 95
2003-03-27 08:27:38 51°18.259 2°45.11 6.3 298 4.5 101800 95
2003-03-27 08:27:44 51°18.263 2°45.11 6.7 300 4.5 101800 95
2003-03-27 08:27:49 51°18.266 2°45.11 6.7 301 4.5 101800 95
2003-03-27 08:27:54 51°18.269 2°45.11 6.6 299 4.5 101800 95
2003-03-27 08:27:59 51°18.272 2°45.109 6.7 299 4.5 101790 95
2003-03-27 08:28:04 51°18.276 2°45.108 6.5 299 4.5 101790 95
2003-03-27 08:28:09 51°18.278 2°45.108 6.6 300 4.5 101790 95
2003-03-27 08:28:14 51°18.281 2°45.108 6.8 301 4.5 101790 95
2003-03-27 08:28:19 51°18.284 2°45.109 6.9 299 4.5 101790 95
2003-03-27 08:28:24 51°18.287 2°45.109 6.7 301 4.5 101790 95
2003-03-27 08:28:29 51°18.29 2°45.109 6.8 303 4.5 101790 95
2003-03-27 08:28:34 51°18.293 2°45.11 7.1 301 4.5 101790 95
2003-03-27 08:28:38 51°18.296 2°45.11 7 300 4.5 101790 95
2003-03-27 08:28:44 51°18.3 2°45.11 6.8 297 4.5 101790 95
2003-03-27 08:28:48 51°18.303 2°45.11 6.8 299 4.5 101790 95
2003-03-27 08:28:54 51°18.307 2°45.111 6.8 297 4.5 101790 95
2003-03-27 08:28:58 51°18.31 2°45.111 6.4 296 4.5 101790 95
2003-03-27 08:29:04 51°18.314 2°45.11 7.1 300 4.5 101790 95
2003-03-27 08:29:09 51°18.318 2°45.11 6.9 299 4.5 101790 95
2003-03-27 08:29:14 51°18.321 2°45.11 7 301 4.5 101790 95
2003-03-27 08:29:18 51°18.324 2°45.11 7 301 4.5 101800 95
2003-03-27 08:29:24 51°18.329 2°45.111 6.8 302 4.5 101800 95
2003-03-27 08:29:28 51°18.331 2°45.111 6.7 303 4.5 101790 95
2003-03-27 08:29:34 51°18.336 2°45.111 6.4 303 4.5 101790 95
2003-03-27 08:29:38 51°18.338 2°45.111 6.6 304 4.5 101790 95
2003-03-27 08:29:44 51°18.342 2°45.111 6.1 306 4.5 101790 95
2003-03-27 08:29:48 51°18.345 2°45.111 7 309 4.5 101790 95
2003-03-27 08:29:54 51°18.349 2°45.112 6.7 314 4.5 101790 95
2003-03-27 08:29:59 51°18.353 2°45.112 6.6 310 4.5 101790 95
2003-03-27 08:30:04 51°18.356 2°45.112 7 310 4.5 101790 95
2003-03-27 08:30:09 51°18.36 2°45.112 7.2 315 4.5 101790 95
2003-03-27 08:30:14 51°18.365 2°45.112 6.8 314 4.5 101790 95
2003-03-27 08:30:18 51°18.368 2°45.113 7.1 317 4.5 101790 95
2003-03-27 08:30:24 51°18.373 2°45.113 7.5 312 4.5 101790 95
2003-03-27 08:30:29 51°18.377 2°45.114 6.9 311 4.5 101780 95
2003-03-27 08:30:34 51°18.382 2°45.114 6.8 310 4.5 101780 95
2003-03-27 08:30:38 51°18.385 2°45.115 6.7 314 4.4 101780 95
2003-03-27 08:30:44 51°18.39 2°45.116 7.4 315 4.4 101780 95
2003-03-27 08:30:49 51°18.395 2°45.117 7.2 314 4.5 101780 95
2003-03-27 08:30:54 51°18.399 2°45.119 7.3 320 4.5 101780 95
2003-03-27 08:30:59 51°18.404 2°45.12 7.2 320 4.4 101780 95
2003-03-27 08:31:04 51°18.409 2°45.121 6.9 324 4.4 101780 95
2003-03-27 08:31:09 51°18.413 2°45.123 7.1 326 4.4 101780 95
2003-03-27 08:31:14 51°18.417 2°45.125 7.3 329 4.4 101780 95
2003-03-27 08:31:19 51°18.421 2°45.127 7.6 327 4.4 101780 95
2003-03-27 08:31:24 51°18.425 2°45.129 7.2 330 4.4 101780 95
2003-03-27 08:31:29 51°18.429 2°45.132 7.6 330 4.4 101780 95
2003-03-27 08:31:34 51°18.433 2°45.134 7.2 330 4.4 101780 95
2003-03-27 08:31:38 51°18.436 2°45.135 7.2 329 4.4 101780 95
2003-03-27 08:31:44 51°18.441 2°45.139 7.3 333 4.4 101780 95
2003-03-27 08:31:48 51°18.445 2°45.141 7.2 333 4.5 101770 95
2003-03-27 08:31:54 51°18.45 2°45.146 7.3 334 4.5 101770 95
2003-03-27 08:31:58 51°18.454 2°45.15 7.1 335 4.5 101780 95
2003-03-27 08:32:04 51°18.459 2°45.154 7.1 337 4.5 101780 95
2003-03-27 08:32:09 51°18.463 2°45.158 7.4 339 4.5 101770 95
2003-03-27 08:32:14 51°18.467 2°45.162 7.4 340 4.5 101770 95
2003-03-27 08:32:18 51°18.469 2°45.164 7.3 340 4.5 101780 95
2003-03-27 08:32:24 51°18.474 2°45.169 7.4 341 4.5 101780 95
2003-03-27 08:32:28 51°18.476 2°45.172 7.2 344 4.5 101780 95
2003-03-27 08:32:34 51°18.48 2°45.176 7.3 341 4.5 101780 95
2003-03-27 08:32:38 51°18.483 2°45.18 7.6 338 4.5 101780 95
2003-03-27 08:32:44 51°18.487 2°45.184 7.4 341 4.5 101780 95
2003-03-27 08:32:48 51°18.49 2°45.187 7.4 339 4.5 101780 95
2003-03-27 08:32:54 51°18.495 2°45.192 7.3 340 4.5 101780 95
2003-03-27 08:32:59 51°18.499 2°45.196 7.5 345 4.5 101780 95
2003-03-27 08:33:04 51°18.503 2°45.2 7.2 343 4.5 101780 95
2003-03-27 08:33:09 51°18.507 2°45.204 7.2 344 4.5 101780 95
2003-03-27 08:33:14 51°18.511 2°45.208 7.2 344 4.5 101780 95
2003-03-27 08:33:18 51°18.514 2°45.212 7 342 4.5 101780 95
2003-03-27 08:33:24 51°18.519 2°45.217 7.2 343 4.5 101780 95
2003-03-27 08:33:29 51°18.522 2°45.221 7.1 345 4.5 101790 95
2003-03-27 08:33:34 51°18.526 2°45.225 7 342 4.5 101790 95
2003-03-27 08:33:38 51°18.529 2°45.228 6.6 347 4.5 101780 95
2003-03-27 08:33:44 51°18.534 2°45.233 7 340 4.5 101780 95
2003-03-27 08:33:49 51°18.537 2°45.238 7.3 345 4.5 101790 95
2003-03-27 08:33:54 51°18.541 2°45.242 7 343 4.5 101790 95
2003-03-27 08:33:59 51°18.545 2°45.247 7 341 4.5 101780 95
2003-03-27 08:34:04 51°18.549 2°45.252 7.6 342 4.5 101780 95
2003-03-27 08:34:09 51°18.552 2°45.256 7.3 342 4.6 101780 95
2003-03-27 08:34:14 51°18.555 2°45.261 7.4 344 4.6 101780 95
2003-03-27 08:34:19 51°18.558 2°45.265 7.2 341 4.6 101780 95
2003-03-27 08:34:24 51°18.561 2°45.269 7.2 343 4.6 101780 95
2003-03-27 08:34:29 51°18.565 2°45.273 7.1 342 4.6 101780 95
2003-03-27 08:34:34 51°18.568 2°45.278 7.5 343 4.6 101780 95
2003-03-27 08:34:38 51°18.57 2°45.282 7.3 342 4.6 101780 95
2003-03-27 08:34:44 51°18.574 2°45.287 6.6 345 4.6 101780 95
2003-03-27 08:34:48 51°18.577 2°45.29 6.9 342 4.6 101790 95
2003-03-27 08:34:54 51°18.582 2°45.294 7.3 343 4.6 101790 95
2003-03-27 08:34:58 51°18.584 2°45.297 7.1 349 4.6 101780 95
2003-03-27 08:35:04 51°18.589 2°45.301 7.2 345 4.6 101780 95
2003-03-27 08:35:09 51°18.592 2°45.305 7.2 345 4.6 101780 95
2003-03-27 08:35:14 51°18.596 2°45.309 7.2 344 4.6 101780 95
2003-03-27 08:35:19 51°18.6 2°45.313 7.3 344 4.6 101790 95
2003-03-27 08:35:24 51°18.603 2°45.317 7.4 342 4.6 101790 95
2003-03-27 08:35:28 51°18.604 2°45.321 7 338 4.6 101780 95
2003-03-27 08:35:34 51°18.608 2°45.326 7.4 344 4.6 101780 95
2003-03-27 08:35:38 51°18.61 2°45.329 7.5 344 4.6 101780 95
2003-03-27 08:35:44 51°18.614 2°45.334 7.6 342 4.6 101780 95
2003-03-27 08:35:49 51°18.618 2°45.337 7.4 342 4.6 101780 95
2003-03-27 08:35:54 51°18.621 2°45.341 7.4 345 4.6 101780 95
2003-03-27 08:35:58 51°18.624 2°45.344 7.4 345 4.6 101790 95
2003-03-27 08:36:04 51°18.628 2°45.349 7.4 344 4.6 101790 95
2003-03-27 08:36:09 51°18.631 2°45.354 7 348 4.6 101780 95
2003-03-27 08:36:14 51°18.635 2°45.357 6.6 345 4.6 101780 95
2003-03-27 08:36:18 51°18.638 2°45.36 7 344 4.6 101780 95
2003-03-27 08:36:24 51°18.641 2°45.365 7.5 347 4.6 101780 95
2003-03-27 08:36:29 51°18.645 2°45.368 7.4 342 4.6 101780 95
2003-03-27 08:36:34 51°18.648 2°45.372 7.5 341 4.6 101780 95
2003-03-27 08:36:38 51°18.651 2°45.375 7.4 342 4.6 101790 95
2003-03-27 08:36:44 51°18.655 2°45.379 7.2 345 4.6 101790 95
2003-03-27 08:36:49 51°18.658 2°45.383 7.1 343 4.6 101790 95
2003-03-27 08:36:54 51°18.662 2°45.386 7.4 342 4.6 101790 95
2003-03-27 08:36:59 51°18.665 2°45.39 7.4 344 4.6 101780 95
2003-03-27 08:37:04 51°18.669 2°45.393 7.5 342 4.6 101780 95
2003-03-27 08:37:09 51°18.672 2°45.396 7.4 342 4.6 101790 95
2003-03-27 08:37:14 51°18.676 2°45.4 7.5 343 4.6 101790 95
2003-03-27 08:37:18 51°18.678 2°45.403 7.4 346 4.6 101790 95
2003-03-27 08:37:24 51°18.682 2°45.408 7.3 344 4.6 101790 95
2003-03-27 08:37:29 51°18.686 2°45.411 7.2 345 4.6 101780 95
2003-03-27 08:37:34 51°18.689 2°45.415 7.3 346 4.6 101780 95
2003-03-27 08:37:38 51°18.692 2°45.418 7 344 4.6 101790 95
2003-03-27 08:37:44 51°18.697 2°45.422 7.1 346 4.6 101790 95
2003-03-27 08:37:49 51°18.7 2°45.426 6.9 348 4.6 101790 95
2003-03-27 08:37:54 51°18.704 2°45.43 7.4 349 4.6 101790 95
2003-03-27 08:37:58 51°18.707 2°45.434 7.4 348 4.6 101790 95
2003-03-27 08:38:04 51°18.711 2°45.439 7.6 351 4.6 101790 95
2003-03-27 08:38:09 51°18.715 2°45.442 7.3 350 4.6 101790 95
2003-03-27 08:38:14 51°18.719 2°45.446 7.6 350 4.6 101790 95
2003-03-27 08:38:18 51°18.722 2°45.449 7.2 346 4.6 101790 95
2003-03-27 08:38:24 51°18.726 2°45.454 7.1 349 4.6 101790 95
2003-03-27 08:38:29 51°18.73 2°45.458 7.3 353 4.6 101790 95
2003-03-27 08:38:34 51°18.733 2°45.462 7.5 349 4.6 101790 95
2003-03-27 08:38:38 51°18.736 2°45.465 7.7 348 4.6 101790 95
2003-03-27 08:38:45 51°18.74 2°45.471 6.7 352 4.6 101790 95
2003-03-27 08:38:49 51°18.743 2°45.475 7.5 351 4.6 101790 95
2003-03-27 08:38:54 51°18.746 2°45.48 7.4 352 4.6 101790 95
2003-03-27 08:38:58 51°18.749 2°45.483 7.2 351 4.6 101790 95
2003-03-27 08:39:05 51°18.754 2°45.49 7.4 350 4.6 101790 95
2003-03-27 08:39:09 51°18.756 2°45.494 7.2 350 4.6 101790 95
2003-03-27 08:39:14 51°18.759 2°45.499 7.6 351 4.6 101790 95
2003-03-27 08:39:18 51°18.762 2°45.503 7.3 352 4.6 101790 95
2003-03-27 08:39:25 51°18.767 2°45.509 7.3 357 4.6 101790 95
2003-03-27 08:39:29 51°18.769 2°45.513 7.3 358 4.6 101790 95
2003-03-27 08:39:33 51°18.772 2°45.516 7.4 354 4.6 101790 95
2003-03-27 08:39:38 51°18.776 2°45.522 7.7 355 4.6 101790 95
2003-03-27 08:39:45 51°18.78 2°45.528 7.5 358 4.6 101790 95
2003-03-27 08:39:49 51°18.783 2°45.532 7.7 358 4.6 101790 95
2003-03-27 08:39:55 51°18.787 2°45.537 7.4 359 4.6 101790 95
2003-03-27 08:39:58 51°18.789 2°45.54 7.4 360 4.6 101790 95
2003-03-27 08:40:05 51°18.793 2°45.548 7.5 357 4.6 101790 95
2003-03-27 08:40:09 51°18.796 2°45.552 7.4 359 4.6 101790 95
2003-03-27 08:40:14 51°18.799 2°45.557 7.3 357 4.6 101790 95
2003-03-27 08:40:18 51°18.801 2°45.561 7.7   4.6 101790 95
2003-03-27 08:40:25 51°18.805 2°45.568 7.1 358 4.6 101790 95
2003-03-27 08:40:29 51°18.808 2°45.572 7.3   4.6 101790 95
2003-03-27 08:40:34 51°18.81 2°45.578 7.5 6 4.6 101790 95
2003-03-27 08:40:38 51°18.812 2°45.582 7.6 7 4.6 101790 95
2003-03-27 08:40:45 51°18.816 2°45.588 7.3 7 4.6 101790 95
2003-03-27 08:40:49 51°18.819 2°45.592 7.8 6 4.5 101790 95
2003-03-27 08:40:54 51°18.822 2°45.597 7.8 3 4.5 101790 95
2003-03-27 08:40:59 51°18.825 2°45.602 7.8 4 4.5 101800 95
2003-03-27 08:41:05 51°18.828 2°45.609 7.3 5 4.5 101800 95
2003-03-27 08:41:09 51°18.83 2°45.613 7.3 7 4.6 101790 95
2003-03-27 08:41:14 51°18.833 2°45.618 7.2 6 4.6 101790 95
2003-03-27 08:41:19 51°18.835 2°45.624 7.7 5 4.6 101790 95
2003-03-27 08:41:25 51°18.838 2°45.63 7.6 10 4.6 101790 95
2003-03-27 08:41:29 51°18.84 2°45.633 7.2 6 4.6 101790 95
2003-03-27 08:41:35 51°18.843 2°45.639 7.6 9 4.6 101790 95
2003-03-27 08:41:39 51°18.846 2°45.643 7.6 8 4.6 101790 95
2003-03-27 08:41:45 51°18.849 2°45.648 7.8 10 4.6 101790 95
2003-03-27 08:41:49 51°18.85 2°45.652 7.6 10 4.6 101790 95
2003-03-27 08:41:55 51°18.853 2°45.659 7.6 10 4.6 101790 95
2003-03-27 08:41:59 51°18.855 2°45.663 7.6 9 4.6 101790 95
2003-03-27 08:42:05 51°18.858 2°45.671 7.4 11 4.6 101790 95
2003-03-27 08:42:09 51°18.859 2°45.675 7.7 8 4.6 101790 95
2003-03-27 08:42:15 51°18.862 2°45.682 7 6 4.6 101790 95
2003-03-27 08:42:19 51°18.864 2°45.687 7.4 8 4.6 101790 95
2003-03-27 08:42:25 51°18.867 2°45.694 7.2 7 4.6 101790 95
2003-03-27 08:42:29 51°18.868 2°45.698 7.3 7 4.6 101790 95
2003-03-27 08:42:33 51°18.87 2°45.703 7.1 5 4.6 101790 95
2003-03-27 08:42:38 51°18.873 2°45.708 6.6 7 4.7 101790 96
2003-03-27 08:42:45 51°18.876 2°45.716 6.7 6 4.7 101790 96
2003-03-27 08:42:49 51°18.878 2°45.72 7 13 4.7 101790 95
2003-03-27 08:42:55 51°18.881 2°45.727 6.7 2 4.7 101790 95
2003-03-27 08:42:59 51°18.882 2°45.732 7.1 11 4.6 101790 96
2003-03-27 08:43:05 51°18.885 2°45.739 7.4 9 4.6 101790 96
2003-03-27 08:43:09 51°18.887 2°45.744 7 9 4.7 101790 95
2003-03-27 08:43:14 51°18.89 2°45.749 7.4 8 4.7 101790 95
2003-03-27 08:43:19 51°18.892 2°45.755 6.9 10 4.7 101790 95
2003-03-27 08:43:25 51°18.895 2°45.761 6.7 6 4.7 101790 95
2003-03-27 08:43:29 51°18.898 2°45.766 6.7 5 4.7 101790 95
2003-03-27 08:43:35 51°18.9 2°45.773 7 10 4.7 101790 95
2003-03-27 08:43:39 51°18.903 2°45.777 7.5 2 4.7 101790 95
2003-03-27 08:43:45 51°18.906 2°45.784 7.5 2 4.7 101790 95
2003-03-27 08:43:49 51°18.908 2°45.789 7.3 3 4.7 101790 95
2003-03-27 08:43:55 51°18.912 2°45.796 7.5 4 4.7 101790 95
2003-03-27 08:43:59 51°18.914 2°45.801 7.4 1 4.7 101790 96
2003-03-27 08:44:05 51°18.917 2°45.809 7.4 4 4.7 101790 96
2003-03-27 08:44:09 51°18.919 2°45.813 7.3 3 4.7 101790 96
2003-03-27 08:44:15 51°18.922 2°45.82 7.4 1 4.7 101790 96
2003-03-27 08:44:19 51°18.924 2°45.824 7.4 3 4.7 101790 95
2003-03-27 08:44:25 51°18.928 2°45.831 6.8 4 4.7 101790 95
2003-03-27 08:44:29 51°18.931 2°45.834 7 1 4.7 101790 96
2003-03-27 08:44:35 51°18.935 2°45.84 6.9 4 4.7 101790 96
2003-03-27 08:44:39 51°18.937 2°45.845 7.3 5 4.7 101800 96
2003-03-27 08:44:45 51°18.941 2°45.851 7.8 358 4.7 101800 96
2003-03-27 08:44:49 51°18.944 2°45.855 7.8 359 4.7 101790 96
2003-03-27 08:44:55 51°18.947 2°45.861 7.8 358 4.7 101790 96
2003-03-27 08:44:59 51°18.95 2°45.865 7.7 358 4.7 101800 96
2003-03-27 08:45:05 51°18.954 2°45.871 7.6 357 4.7 101800 96
2003-03-27 08:45:09 51°18.956 2°45.876 7.7 360 4.7 101790 96
2003-03-27 08:45:15 51°18.96 2°45.882 7.8 355 4.7 101790 96
2003-03-27 08:45:19 51°18.962 2°45.886 7.5 349 4.7 101790 96
2003-03-27 08:45:25 51°18.966 2°45.892 8 349 4.7 101790 96
2003-03-27 08:45:29 51°18.969 2°45.895 7.8 348 4.7 101790 96
2003-03-27 08:45:35 51°18.972 2°45.901 7.7 346 4.7 101790 96
2003-03-27 08:45:39 51°18.975 2°45.905 7.5 349 4.7 101790 96
2003-03-27 08:45:45 51°18.98 2°45.91 7.3 345 4.7 101790 96
2003-03-27 08:45:49 51°18.982 2°45.914 7 344 4.7 101790 96
2003-03-27 08:45:55 51°18.987 2°45.918 7 346 4.7 101790 96
2003-03-27 08:45:59 51°18.989 2°45.922 7.2 343 4.7 101790 96
2003-03-27 08:46:05 51°18.993 2°45.927 7.4 346 4.7 101790 96
2003-03-27 08:46:09 51°18.996 2°45.93 7.1 351 4.6 101790 96
2003-03-27 08:46:15 51°19 2°45.935 7.3 349 4.6 101790 96
2003-03-27 08:46:20 51°19.003 2°45.939 6.7 341 4.6 101790 96
2003-03-27 08:46:25 51°19.006 2°45.942 7.1 349 4.6 101790 96
2003-03-27 08:46:29 51°19.009 2°45.945 7.5 345 4.6 101790 96
2003-03-27 08:46:35 51°19.013 2°45.95 6.3 340 4.6 101790 96
2003-03-27 08:46:39 51°19.015 2°45.953 6.5 340 4.6 101790 96
2003-03-27 08:46:45 51°19.019 2°45.957 6.1 342 4.6 101790 96
2003-03-27 08:46:49 51°19.022 2°45.96 7.5 348 4.6 101790 96
2003-03-27 08:46:55 51°19.026 2°45.964 6.6 340 4.6 101790 96
2003-03-27 08:46:59 51°19.029 2°45.966 8.2 339 4.6 101780 96
2003-03-27 08:47:05 51°19.034 2°45.971 7.7 342 4.6 101780 96
2003-03-27 08:47:09 51°19.036 2°45.974 7.2 341 4.7 101790 96
2003-03-27 08:47:15 51°19.04 2°45.979 7.1 342 4.7 101790 96
2003-03-27 08:47:19 51°19.042 2°45.982 7.4 343 4.7 101790 96
2003-03-27 08:47:25 51°19.045 2°45.987 7.4 342 4.7 101790 96
2003-03-27 08:47:29 51°19.047 2°45.99 6.8 336 4.7 101790 96
2003-03-27 08:47:35 51°19.051 2°45.995 7 338 4.7 101790 96
2003-03-27 08:47:39 51°19.053 2°45.998 7.2 341 4.7 101780 96
2003-03-27 08:47:45 51°19.056 2°46.004 7.3 340 4.7 101780 96
2003-03-27 08:47:49 51°19.057 2°46.008 7.5 339 4.7 101790 96
2003-03-27 08:47:55 51°19.06 2°46.013 7.6 340 4.7 101790 96
2003-03-27 08:47:59 51°19.061 2°46.017 7.4 340 4.7 101790 96
2003-03-27 08:48:05 51°19.064 2°46.023 7.4 340 4.7 101790 96
2003-03-27 08:48:09 51°19.067 2°46.026 7.3 338 4.7 101780 96
2003-03-27 08:48:15 51°19.072 2°46.028 7.9 339 4.7 101780 96
2003-03-27 08:48:19 51°19.075 2°46.032 7.8 337 4.6 101780 96
2003-03-27 08:48:25 51°19.079 2°46.037 7.9 338 4.6 101780 96
2003-03-27 08:48:29 51°19.082 2°46.04 7.6 339 4.6 101790 96
2003-03-27 08:48:35 51°19.086 2°46.045 7.5 338 4.6 101790 96
2003-03-27 08:48:39 51°19.089 2°46.048 7.4 339 4.6 101790 96
2003-03-27 08:48:45 51°19.093 2°46.052 7.5 343 4.6 101790 96
2003-03-27 08:48:49 51°19.098 2°46.053 6.8 341 4.6 101780 96
2003-03-27 08:48:55 51°19.102 2°46.056 7.2 338 4.6 101780 96
2003-03-27 08:48:59 51°19.106 2°46.058 7.1 338 4.6 101780 96
2003-03-27 08:49:03 51°19.109 2°46.06 6.8 334 4.6 101780 96
2003-03-27 08:49:09 51°19.113 2°46.064 7.3 336 4.6 101780 96
2003-03-27 08:49:15 51°19.117 2°46.069 7.6 343 4.6 101780 96
2003-03-27 08:49:19 51°19.12 2°46.072 7.5 336 4.6 101780 96
2003-03-27 08:49:25 51°19.125 2°46.075 7.6 338 4.6 101780 96
2003-03-27 08:49:30 51°19.128 2°46.078 7.8 339 4.6 101790 96
2003-03-27 08:49:35 51°19.133 2°46.08 7.3 336 4.6 101790 96
2003-03-27 08:49:40 51°19.136 2°46.084 7.7 338 4.6 101780 96
2003-03-27 08:49:45 51°19.14 2°46.088 8 338 4.6 101780 96
2003-03-27 08:49:50 51°19.143 2°46.091 7.5 340 4.6 101790 96
2003-03-27 08:49:55 51°19.147 2°46.094 7.8 340 4.6 101790 96
2003-03-27 08:49:59 51°19.15 2°46.096 8.1 338 4.6 101780 96